sensor_id;sensor_type;location;lat;lon;timestamp;temperature;humidity
77071;SHT30;65997;48.410;-4.570;2022-12-18T00:01:37;6.28;65.17
77071;SHT30;65997;48.410;-4.570;2022-12-18T00:04:14;6.28;65.26
77071;SHT30;65997;48.410;-4.570;2022-12-18T00:13:30;6.27;65.34
77071;SHT30;65997;48.410;-4.570;2022-12-18T00:16:05;6.24;65.53
77071;SHT30;65997;48.410;-4.570;2022-12-18T00:18:32;6.27;65.48
77071;SHT30;65997;48.410;-4.570;2022-12-18T00:21:03;6.24;65.50
77071;SHT30;65997;48.410;-4.570;2022-12-18T00:23:31;6.21;65.48
77071;SHT30;65997;48.410;-4.570;2022-12-18T00:26:06;6.24;65.57
77071;SHT30;65997;48.410;-4.570;2022-12-18T00:28:33;6.22;65.39
77071;SHT30;65997;48.410;-4.570;2022-12-18T00:31:08;6.18;65.35
77071;SHT30;65997;48.410;-4.570;2022-12-18T00:33:35;6.18;65.36
77071;SHT30;65997;48.410;-4.570;2022-12-18T00:36:02;6.17;65.42
77071;SHT30;65997;48.410;-4.570;2022-12-18T00:38:28;6.17;65.45
77071;SHT30;65997;48.410;-4.570;2022-12-18T00:40:54;6.18;65.34
77071;SHT30;65997;48.410;-4.570;2022-12-18T00:43:22;6.22;65.40
77071;SHT30;65997;48.410;-4.570;2022-12-18T00:45:48;6.20;65.30
77071;SHT30;65997;48.410;-4.570;2022-12-18T00:48:16;6.17;65.39
77071;SHT30;65997;48.410;-4.570;2022-12-18T00:50:43;6.20;65.38
77071;SHT30;65997;48.410;-4.570;2022-12-18T00:53:09;6.17;65.28
77071;SHT30;65997;48.410;-4.570;2022-12-18T00:55:34;6.20;65.16
77071;SHT30;65997;48.410;-4.570;2022-12-18T00:58:00;6.20;65.43
77071;SHT30;65997;48.410;-4.570;2022-12-18T01:00:26;6.21;65.19
77071;SHT30;65997;48.410;-4.570;2022-12-18T01:02:52;6.20;65.23
77071;SHT30;65997;48.410;-4.570;2022-12-18T01:05:20;6.15;65.19
77071;SHT30;65997;48.410;-4.570;2022-12-18T01:07:49;6.17;65.16
77071;SHT30;65997;48.410;-4.570;2022-12-18T01:10:14;6.14;65.31
77071;SHT30;65997;48.410;-4.570;2022-12-18T01:12:40;6.18;65.33
77071;SHT30;65997;48.410;-4.570;2022-12-18T01:15:07;6.17;65.43
77071;SHT30;65997;48.410;-4.570;2022-12-18T01:17:33;6.18;65.30
77071;SHT30;65997;48.410;-4.570;2022-12-18T01:19:59;6.18;65.41
77071;SHT30;65997;48.410;-4.570;2022-12-18T01:22:25;6.18;65.30
77071;SHT30;65997;48.410;-4.570;2022-12-18T01:24:50;6.21;65.20
77071;SHT30;65997;48.410;-4.570;2022-12-18T01:27:16;6.21;65.21
77071;SHT30;65997;48.410;-4.570;2022-12-18T01:29:42;6.17;65.31
77071;SHT30;65997;48.410;-4.570;2022-12-18T01:32:08;6.21;65.29
77071;SHT30;65997;48.410;-4.570;2022-12-18T01:34:36;6.21;65.25
77071;SHT30;65997;48.410;-4.570;2022-12-18T01:37:03;6.20;65.28
77071;SHT30;65997;48.410;-4.570;2022-12-18T01:39:30;6.22;65.33
77071;SHT30;65997;48.410;-4.570;2022-12-18T01:41:58;6.21;65.29
77071;SHT30;65997;48.410;-4.570;2022-12-18T01:45:01;6.22;65.23
77071;SHT30;65997;48.410;-4.570;2022-12-18T01:47:52;6.24;65.18
77071;SHT30;65997;48.410;-4.570;2022-12-18T01:53:14;6.25;65.49
77071;SHT30;65997;48.410;-4.570;2022-12-18T01:55:59;6.27;65.41
77071;SHT30;65997;48.410;-4.570;2022-12-18T02:01:16;6.28;65.58
77071;SHT30;65997;48.410;-4.570;2022-12-18T02:03:43;6.28;65.62
77071;SHT30;65997;48.410;-4.570;2022-12-18T02:06:32;6.28;65.53
77071;SHT30;65997;48.410;-4.570;2022-12-18T02:09:11;6.31;65.69
77071;SHT30;65997;48.410;-4.570;2022-12-18T02:12:02;6.32;65.65
77071;SHT30;65997;48.410;-4.570;2022-12-18T02:14:57;6.31;65.67
77071;SHT30;65997;48.410;-4.570;2022-12-18T02:20:25;6.34;65.83
77071;SHT30;65997;48.410;-4.570;2022-12-18T02:23:22;6.38;65.66
77071;SHT30;65997;48.410;-4.570;2022-12-18T02:35:48;6.41;65.92
77071;SHT30;65997;48.410;-4.570;2022-12-18T02:38:18;6.39;66.01
77071;SHT30;65997;48.410;-4.570;2022-12-18T02:40:45;6.39;66.02
77071;SHT30;65997;48.410;-4.570;2022-12-18T02:43:14;6.44;65.99
77071;SHT30;65997;48.410;-4.570;2022-12-18T02:46:00;6.45;65.83
77071;SHT30;65997;48.410;-4.570;2022-12-18T02:48:47;6.46;66.02
77071;SHT30;65997;48.410;-4.570;2022-12-18T02:51:38;6.49;65.81
77071;SHT30;65997;48.410;-4.570;2022-12-18T02:54:13;6.49;66.00
77071;SHT30;65997;48.410;-4.570;2022-12-18T02:56:51;6.49;66.00
77071;SHT30;65997;48.410;-4.570;2022-12-18T02:59:38;6.53;65.99
77071;SHT30;65997;48.410;-4.570;2022-12-18T03:05:11;6.56;66.05
77071;SHT30;65997;48.410;-4.570;2022-12-18T03:07:50;6.55;66.12
77071;SHT30;65997;48.410;-4.570;2022-12-18T03:10:29;6.59;66.12
77071;SHT30;65997;48.410;-4.570;2022-12-18T03:13:15;6.59;66.04
77071;SHT30;65997;48.410;-4.570;2022-12-18T03:15:52;6.62;66.09
77071;SHT30;65997;48.410;-4.570;2022-12-18T03:18:38;6.62;66.16
77071;SHT30;65997;48.410;-4.570;2022-12-18T03:21:08;6.64;66.20
77071;SHT30;65997;48.410;-4.570;2022-12-18T03:23:50;6.65;66.04
77071;SHT30;65997;48.410;-4.570;2022-12-18T03:26:21;6.68;66.22
77071;SHT30;65997;48.410;-4.570;2022-12-18T03:28:57;6.71;66.15
77071;SHT30;65997;48.410;-4.570;2022-12-18T03:31:28;6.71;66.23
77071;SHT30;65997;48.410;-4.570;2022-12-18T03:33:58;6.71;66.32
77071;SHT30;65997;48.410;-4.570;2022-12-18T03:36:24;6.75;66.27
77071;SHT30;65997;48.410;-4.570;2022-12-18T03:38:51;6.78;66.32
77071;SHT30;65997;48.410;-4.570;2022-12-18T03:41:33;6.75;66.27
77071;SHT30;65997;48.410;-4.570;2022-12-18T03:47:34;6.82;66.15
77071;SHT30;65997;48.410;-4.570;2022-12-18T03:50:27;6.85;66.12
77071;SHT30;65997;48.410;-4.570;2022-12-18T03:53:18;6.83;66.15
77071;SHT30;65997;48.410;-4.570;2022-12-18T03:55:48;6.89;66.30
77071;SHT30;65997;48.410;-4.570;2022-12-18T03:58:18;6.86;66.40
77071;SHT30;65997;48.410;-4.570;2022-12-18T04:00:46;6.90;66.39
77071;SHT30;65997;48.410;-4.570;2022-12-18T04:03:14;6.90;66.35
77071;SHT30;65997;48.410;-4.570;2022-12-18T04:05:43;6.92;66.41
77071;SHT30;65997;48.410;-4.570;2022-12-18T04:08:09;6.92;66.40
77071;SHT30;65997;48.410;-4.570;2022-12-18T04:10:36;6.97;66.49
77071;SHT30;65997;48.410;-4.570;2022-12-18T04:13:02;7.00;66.40
77071;SHT30;65997;48.410;-4.570;2022-12-18T04:15:28;6.97;66.49
77071;SHT30;65997;48.410;-4.570;2022-12-18T04:17:54;7.00;66.51
77071;SHT30;65997;48.410;-4.570;2022-12-18T04:20:19;7.01;66.51
77071;SHT30;65997;48.410;-4.570;2022-12-18T04:22:45;7.04;66.56
77071;SHT30;65997;48.410;-4.570;2022-12-18T04:25:11;7.03;66.52
77071;SHT30;65997;48.410;-4.570;2022-12-18T04:27:36;7.09;66.51
77071;SHT30;65997;48.410;-4.570;2022-12-18T04:30:03;7.07;66.62
77071;SHT30;65997;48.410;-4.570;2022-12-18T04:32:28;7.10;66.61
77071;SHT30;65997;48.410;-4.570;2022-12-18T04:34:54;7.14;66.58
77071;SHT30;65997;48.410;-4.570;2022-12-18T04:37:20;7.14;66.77
77071;SHT30;65997;48.410;-4.570;2022-12-18T04:39:46;7.16;66.73
77071;SHT30;65997;48.410;-4.570;2022-12-18T04:42:11;7.16;66.79
77071;SHT30;65997;48.410;-4.570;2022-12-18T04:44:37;7.20;66.80
77071;SHT30;65997;48.410;-4.570;2022-12-18T04:47:03;7.21;66.75
77071;SHT30;65997;48.410;-4.570;2022-12-18T04:49:29;7.23;66.87
77071;SHT30;65997;48.410;-4.570;2022-12-18T04:51:54;7.24;66.82
77071;SHT30;65997;48.410;-4.570;2022-12-18T04:54:20;7.28;67.01
77071;SHT30;65997;48.410;-4.570;2022-12-18T04:56:46;7.30;67.04
77071;SHT30;65997;48.410;-4.570;2022-12-18T04:59:12;7.28;67.28
77071;SHT30;65997;48.410;-4.570;2022-12-18T05:01:38;7.34;67.13
77071;SHT30;65997;48.410;-4.570;2022-12-18T05:04:04;7.34;67.16
77071;SHT30;65997;48.410;-4.570;2022-12-18T05:06:30;7.34;67.12
77071;SHT30;65997;48.410;-4.570;2022-12-18T05:08:55;7.37;67.10
77071;SHT30;65997;48.410;-4.570;2022-12-18T05:11:24;7.38;67.11
77071;SHT30;65997;48.410;-4.570;2022-12-18T05:13:50;7.43;67.15
77071;SHT30;65997;48.410;-4.570;2022-12-18T05:16:16;7.41;67.20
77071;SHT30;65997;48.410;-4.570;2022-12-18T05:18:42;7.46;67.38
77071;SHT30;65997;48.410;-4.570;2022-12-18T05:21:07;7.44;67.30
77071;SHT30;65997;48.410;-4.570;2022-12-18T05:23:33;7.50;67.17
77071;SHT30;65997;48.410;-4.570;2022-12-18T05:26:01;7.51;67.34
77071;SHT30;65997;48.410;-4.570;2022-12-18T05:28:29;7.51;67.34
77071;SHT30;65997;48.410;-4.570;2022-12-18T05:30:57;7.52;67.38
77071;SHT30;65997;48.410;-4.570;2022-12-18T05:33:25;7.54;67.46
77071;SHT30;65997;48.410;-4.570;2022-12-18T05:35:57;7.59;67.53
77071;SHT30;65997;48.410;-4.570;2022-12-18T05:38:25;7.61;67.58
77071;SHT30;65997;48.410;-4.570;2022-12-18T05:40:52;7.61;67.75
77071;SHT30;65997;48.410;-4.570;2022-12-18T05:43:19;7.62;67.84
77071;SHT30;65997;48.410;-4.570;2022-12-18T05:45:46;7.65;67.61
77071;SHT30;65997;48.410;-4.570;2022-12-18T05:48:11;7.67;67.70
77071;SHT30;65997;48.410;-4.570;2022-12-18T05:51:03;7.71;67.71
77071;SHT30;65997;48.410;-4.570;2022-12-18T05:54:11;7.77;68.02
77071;SHT30;65997;48.410;-4.570;2022-12-18T05:56:37;7.88;67.83
77071;SHT30;65997;48.410;-4.570;2022-12-18T05:59:04;7.96;67.87
77071;SHT30;65997;48.410;-4.570;2022-12-18T06:01:30;7.98;68.51
77071;SHT30;65997;48.410;-4.570;2022-12-18T06:03:56;8.05;68.42
77071;SHT30;65997;48.410;-4.570;2022-12-18T06:06:24;8.10;68.73
77071;SHT30;65997;48.410;-4.570;2022-12-18T06:08:51;8.19;68.40
77071;SHT30;65997;48.410;-4.570;2022-12-18T06:11:20;8.28;68.93
77071;SHT30;65997;48.410;-4.570;2022-12-18T06:13:46;8.37;68.25
77071;SHT30;65997;48.410;-4.570;2022-12-18T06:16:15;8.43;68.29
77071;SHT30;65997;48.410;-4.570;2022-12-18T06:18:40;8.54;68.13
77071;SHT30;65997;48.410;-4.570;2022-12-18T06:21:09;8.60;67.61
77071;SHT30;65997;48.410;-4.570;2022-12-18T06:23:35;8.70;67.48
77071;SHT30;65997;48.410;-4.570;2022-12-18T06:26:09;8.78;67.59
77071;SHT30;65997;48.410;-4.570;2022-12-18T06:28:35;8.84;67.49
77071;SHT30;65997;48.410;-4.570;2022-12-18T06:31:03;8.81;66.94
77071;SHT30;65997;48.410;-4.570;2022-12-18T06:33:29;8.84;66.92
77071;SHT30;65997;48.410;-4.570;2022-12-18T06:36:15;8.87;66.57
77071;SHT30;65997;48.410;-4.570;2022-12-18T06:38:43;8.89;66.47
77071;SHT30;65997;48.410;-4.570;2022-12-18T06:41:12;8.89;66.34
77071;SHT30;65997;48.410;-4.570;2022-12-18T06:43:38;8.92;66.23
77071;SHT30;65997;48.410;-4.570;2022-12-18T06:46:05;8.92;66.33
77071;SHT30;65997;48.410;-4.570;2022-12-18T06:48:31;8.92;66.12
77071;SHT30;65997;48.410;-4.570;2022-12-18T06:50:57;8.91;66.19
77071;SHT30;65997;48.410;-4.570;2022-12-18T06:53:23;8.88;66.21
77071;SHT30;65997;48.410;-4.570;2022-12-18T06:55:48;8.88;66.27
77071;SHT30;65997;48.410;-4.570;2022-12-18T06:58:14;8.92;66.40
77071;SHT30;65997;48.410;-4.570;2022-12-18T07:00:40;8.88;66.36
77071;SHT30;65997;48.410;-4.570;2022-12-18T07:03:06;8.85;66.54
77071;SHT30;65997;48.410;-4.570;2022-12-18T07:05:31;8.88;66.56
77071;SHT30;65997;48.410;-4.570;2022-12-18T07:07:58;8.87;66.57
77071;SHT30;65997;48.410;-4.570;2022-12-18T07:10:24;8.84;66.77
77071;SHT30;65997;48.410;-4.570;2022-12-18T07:12:50;8.85;66.88
77071;SHT30;65997;48.410;-4.570;2022-12-18T07:15:15;8.84;66.77
77071;SHT30;65997;48.410;-4.570;2022-12-18T07:17:41;8.82;66.98
77071;SHT30;65997;48.410;-4.570;2022-12-18T07:20:07;8.84;66.98
77071;SHT30;65997;48.410;-4.570;2022-12-18T07:22:33;8.88;67.23
77071;SHT30;65997;48.410;-4.570;2022-12-18T07:24:59;8.85;67.14
77071;SHT30;65997;48.410;-4.570;2022-12-18T07:27:25;8.88;67.05
77071;SHT30;65997;48.410;-4.570;2022-12-18T07:29:50;8.87;67.27
77071;SHT30;65997;48.410;-4.570;2022-12-18T07:32:16;8.88;67.16
77071;SHT30;65997;48.410;-4.570;2022-12-18T07:34:42;8.88;67.07
77071;SHT30;65997;48.410;-4.570;2022-12-18T07:37:08;8.88;67.05
77071;SHT30;65997;48.410;-4.570;2022-12-18T07:39:34;8.92;67.30
77071;SHT30;65997;48.410;-4.570;2022-12-18T07:42:00;8.92;67.05
77071;SHT30;65997;48.410;-4.570;2022-12-18T07:44:45;8.94;67.48
77071;SHT30;65997;48.410;-4.570;2022-12-18T07:47:11;8.92;67.16
77071;SHT30;65997;48.410;-4.570;2022-12-18T07:49:57;8.97;66.83
77071;SHT30;65997;48.410;-4.570;2022-12-18T07:52:22;8.95;67.60
77071;SHT30;65997;48.410;-4.570;2022-12-18T07:54:48;9.00;67.33
77071;SHT30;65997;48.410;-4.570;2022-12-18T07:57:16;9.01;67.35
77071;SHT30;65997;48.410;-4.570;2022-12-18T07:59:42;9.04;67.25
77071;SHT30;65997;48.410;-4.570;2022-12-18T08:02:08;9.07;66.85
77071;SHT30;65997;48.410;-4.570;2022-12-18T08:04:34;9.11;66.97
77071;SHT30;65997;48.410;-4.570;2022-12-18T08:07:00;9.10;66.84
77071;SHT30;65997;48.410;-4.570;2022-12-18T08:09:26;9.12;66.84
77071;SHT30;65997;48.410;-4.570;2022-12-18T08:11:51;9.14;66.73
77071;SHT30;65997;48.410;-4.570;2022-12-18T08:14:17;9.18;66.77
77071;SHT30;65997;48.410;-4.570;2022-12-18T08:16:43;9.21;66.72
77071;SHT30;65997;48.410;-4.570;2022-12-18T08:19:09;9.22;66.60
77071;SHT30;65997;48.410;-4.570;2022-12-18T08:21:37;9.22;66.54
77071;SHT30;65997;48.410;-4.570;2022-12-18T08:24:03;9.26;66.60
77071;SHT30;65997;48.410;-4.570;2022-12-18T08:26:30;9.29;66.65
77071;SHT30;65997;48.410;-4.570;2022-12-18T08:28:58;9.29;66.52
77071;SHT30;65997;48.410;-4.570;2022-12-18T08:31:26;9.35;66.56
77071;SHT30;65997;48.410;-4.570;2022-12-18T08:33:52;9.38;66.60
77071;SHT30;65997;48.410;-4.570;2022-12-18T08:36:22;9.40;66.58
77071;SHT30;65997;48.410;-4.570;2022-12-18T08:38:49;9.45;66.82
77071;SHT30;65997;48.410;-4.570;2022-12-18T08:41:16;9.49;67.09
77071;SHT30;65997;48.410;-4.570;2022-12-18T08:43:42;9.52;66.86
77071;SHT30;65997;48.410;-4.570;2022-12-18T08:46:33;9.53;67.07
77071;SHT30;65997;48.410;-4.570;2022-12-18T08:49:00;9.59;67.38
77071;SHT30;65997;48.410;-4.570;2022-12-18T08:51:25;9.64;67.00
77071;SHT30;65997;48.410;-4.570;2022-12-18T08:53:56;9.67;68.07
77071;SHT30;65997;48.410;-4.570;2022-12-18T09:00:04;9.79;68.46
77071;SHT30;65997;48.410;-4.570;2022-12-18T09:02:30;9.82;68.72
77071;SHT30;65997;48.410;-4.570;2022-12-18T09:04:56;9.84;68.75
77071;SHT30;65997;48.410;-4.570;2022-12-18T09:07:22;9.89;69.03
77071;SHT30;65997;48.410;-4.570;2022-12-18T09:09:47;9.94;68.72
77071;SHT30;65997;48.410;-4.570;2022-12-18T09:12:13;9.95;68.57
77071;SHT30;65997;48.410;-4.570;2022-12-18T09:14:46;10.01;67.81
77071;SHT30;65997;48.410;-4.570;2022-12-18T09:17:14;10.01;67.58
77071;SHT30;65997;48.410;-4.570;2022-12-18T09:23:20;10.10;67.89
77071;SHT30;65997;48.410;-4.570;2022-12-18T09:25:46;10.11;67.99
77071;SHT30;65997;48.410;-4.570;2022-12-18T09:28:33;10.14;68.15
77071;SHT30;65997;48.410;-4.570;2022-12-18T09:31:02;10.15;68.18
77071;SHT30;65997;48.410;-4.570;2022-12-18T09:33:28;10.22;68.52
77071;SHT30;65997;48.410;-4.570;2022-12-18T09:35:54;10.21;68.55
77071;SHT30;65997;48.410;-4.570;2022-12-18T09:38:20;10.27;68.78
77071;SHT30;65997;48.410;-4.570;2022-12-18T09:40:54;10.27;68.81
77071;SHT30;65997;48.410;-4.570;2022-12-18T09:43:44;10.31;68.79
77071;SHT30;65997;48.410;-4.570;2022-12-18T09:46:21;10.33;69.25
77071;SHT30;65997;48.410;-4.570;2022-12-18T09:48:54;10.37;69.00
77071;SHT30;65997;48.410;-4.570;2022-12-18T09:51:33;10.37;69.00
77071;SHT30;65997;48.410;-4.570;2022-12-18T09:54:07;10.41;69.11
77071;SHT30;65997;48.410;-4.570;2022-12-18T09:56:40;10.44;69.04
77071;SHT30;65997;48.410;-4.570;2022-12-18T09:59:26;10.45;69.23
77071;SHT30;65997;48.410;-4.570;2022-12-18T10:21:32;10.65;69.62
77071;SHT30;65997;48.410;-4.570;2022-12-18T10:24:45;10.64;69.61
77071;SHT30;65997;48.410;-4.570;2022-12-18T10:30:37;10.72;69.96
77071;SHT30;65997;48.410;-4.570;2022-12-18T10:36:54;10.82;70.35
77071;SHT30;65997;48.410;-4.570;2022-12-18T10:56:46;11.03;70.55
77071;SHT30;65997;48.410;-4.570;2022-12-18T11:06:51;11.16;70.70
77071;SHT30;65997;48.410;-4.570;2022-12-18T11:27:59;11.53;71.31
77071;SHT30;65997;48.410;-4.570;2022-12-18T11:34:30;11.60;71.48
77071;SHT30;65997;48.410;-4.570;2022-12-18T11:37:31;11.67;71.47
77071;SHT30;65997;48.410;-4.570;2022-12-18T11:40:44;11.73;71.61
77071;SHT30;65997;48.410;-4.570;2022-12-18T11:47:23;11.82;71.59
77071;SHT30;65997;48.410;-4.570;2022-12-18T12:31:09;12.18;71.27
77071;SHT30;65997;48.410;-4.570;2022-12-18T12:34:24;12.18;71.23
77071;SHT30;65997;48.410;-4.570;2022-12-18T12:40:20;12.18;71.76
77071;SHT30;65997;48.410;-4.570;2022-12-18T12:43:12;12.21;71.39
77071;SHT30;65997;48.410;-4.570;2022-12-18T12:46:04;12.24;70.91
77071;SHT30;65997;48.410;-4.570;2022-12-18T12:49:03;12.24;71.61
77071;SHT30;65997;48.410;-4.570;2022-12-18T12:52:10;12.22;71.23
77071;SHT30;65997;48.410;-4.570;2022-12-18T12:55:05;12.26;71.79
77071;SHT30;65997;48.410;-4.570;2022-12-18T12:58:05;12.25;71.39
77071;SHT30;65997;48.410;-4.570;2022-12-18T13:06:29;12.36;71.51
77071;SHT30;65997;48.410;-4.570;2022-12-18T13:09:02;12.38;71.60
77071;SHT30;65997;48.410;-4.570;2022-12-18T13:18:25;12.42;71.45
77071;SHT30;65997;48.410;-4.570;2022-12-18T13:23:31;12.43;71.77
77071;SHT30;65997;48.410;-4.570;2022-12-18T13:28:52;12.48;71.72
77071;SHT30;65997;48.410;-4.570;2022-12-18T13:31:58;12.49;71.32
77071;SHT30;65997;48.410;-4.570;2022-12-18T13:34:26;12.52;72.36
77071;SHT30;65997;48.410;-4.570;2022-12-18T13:36:57;12.56;72.52
77071;SHT30;65997;48.410;-4.570;2022-12-18T13:39:41;12.57;72.33
77071;SHT30;65997;48.410;-4.570;2022-12-18T13:42:31;12.61;72.21
77071;SHT30;65997;48.410;-4.570;2022-12-18T13:45:37;12.64;71.88
77071;SHT30;65997;48.410;-4.570;2022-12-18T13:48:22;12.66;72.31
77071;SHT30;65997;48.410;-4.570;2022-12-18T13:53:58;12.70;71.88
77071;SHT30;65997;48.410;-4.570;2022-12-18T13:56:28;12.69;71.98
77071;SHT30;65997;48.410;-4.570;2022-12-18T13:59:17;12.70;71.90
77071;SHT30;65997;48.410;-4.570;2022-12-18T14:01:48;12.73;72.15
77071;SHT30;65997;48.410;-4.570;2022-12-18T14:04:29;12.73;72.07
77071;SHT30;65997;48.410;-4.570;2022-12-18T14:07:01;12.73;71.98
77071;SHT30;65997;48.410;-4.570;2022-12-18T14:09:30;12.73;72.18
77071;SHT30;65997;48.410;-4.570;2022-12-18T14:11:57;12.75;72.06
77071;SHT30;65997;48.410;-4.570;2022-12-18T14:14:35;12.76;72.09
77071;SHT30;65997;48.410;-4.570;2022-12-18T14:17:01;12.76;72.06
77071;SHT30;65997;48.410;-4.570;2022-12-18T14:19:27;12.77;72.02
77071;SHT30;65997;48.410;-4.570;2022-12-18T14:21:55;12.79;71.93
77071;SHT30;65997;48.410;-4.570;2022-12-18T14:24:22;12.79;72.05
77071;SHT30;65997;48.410;-4.570;2022-12-18T14:26:51;12.80;72.11
77071;SHT30;65997;48.410;-4.570;2022-12-18T14:29:28;12.80;72.11
77071;SHT30;65997;48.410;-4.570;2022-12-18T14:32:10;12.81;71.93
77071;SHT30;65997;48.410;-4.570;2022-12-18T14:34:36;12.83;72.21
77071;SHT30;65997;48.410;-4.570;2022-12-18T14:37:02;12.83;72.34
77071;SHT30;65997;48.410;-4.570;2022-12-18T14:39:28;12.81;72.44
77071;SHT30;65997;48.410;-4.570;2022-12-18T14:41:53;12.83;72.51
77071;SHT30;65997;48.410;-4.570;2022-12-18T14:44:19;12.81;72.47
77071;SHT30;65997;48.410;-4.570;2022-12-18T14:46:48;12.81;72.57
77071;SHT30;65997;48.410;-4.570;2022-12-18T14:49:34;12.81;72.43
77071;SHT30;65997;48.410;-4.570;2022-12-18T14:52:04;12.84;72.85
77071;SHT30;65997;48.410;-4.570;2022-12-18T14:54:50;12.86;72.28
77071;SHT30;65997;48.410;-4.570;2022-12-18T14:57:34;12.84;72.37
77071;SHT30;65997;48.410;-4.570;2022-12-18T15:00:07;12.86;72.95
77071;SHT30;65997;48.410;-4.570;2022-12-18T15:02:35;12.86;72.83
77071;SHT30;65997;48.410;-4.570;2022-12-18T15:05:04;12.84;72.76
77071;SHT30;65997;48.410;-4.570;2022-12-18T15:07:50;12.88;72.74
77071;SHT30;65997;48.410;-4.570;2022-12-18T15:10:24;12.90;73.10
77071;SHT30;65997;48.410;-4.570;2022-12-18T15:13:30;12.90;72.78
77071;SHT30;65997;48.410;-4.570;2022-12-18T15:16:01;12.91;72.91
77071;SHT30;65997;48.410;-4.570;2022-12-18T15:18:41;12.93;72.93
77071;SHT30;65997;48.410;-4.570;2022-12-18T15:21:09;12.93;73.13
77071;SHT30;65997;48.410;-4.570;2022-12-18T15:27:00;12.96;73.14
77071;SHT30;65997;48.410;-4.570;2022-12-18T15:29:27;12.97;73.23
77071;SHT30;65997;48.410;-4.570;2022-12-18T16:56:21;13.01;71.74
77071;SHT30;65997;48.410;-4.570;2022-12-18T16:59:04;13.04;71.88
77071;SHT30;65997;48.410;-4.570;2022-12-18T17:01:38;13.07;72.72
77071;SHT30;65997;48.410;-4.570;2022-12-18T17:04:06;13.08;72.90
77071;SHT30;65997;48.410;-4.570;2022-12-18T17:06:34;13.10;72.99
77071;SHT30;65997;48.410;-4.570;2022-12-18T17:09:05;13.14;73.14
77071;SHT30;65997;48.410;-4.570;2022-12-18T17:11:41;13.15;73.14
77071;SHT30;65997;48.410;-4.570;2022-12-18T17:15:07;13.22;73.01
77071;SHT30;65997;48.410;-4.570;2022-12-18T17:17:59;13.25;72.91
77071;SHT30;65997;48.410;-4.570;2022-12-18T17:24:19;13.32;72.93
77071;SHT30;65997;48.410;-4.570;2022-12-18T17:26:47;13.31;73.35
77071;SHT30;65997;48.410;-4.570;2022-12-18T17:29:25;13.34;73.28
77071;SHT30;65997;48.410;-4.570;2022-12-18T17:31:59;13.37;73.60
77071;SHT30;65997;48.410;-4.570;2022-12-18T17:34:51;13.41;73.36
77071;SHT30;65997;48.410;-4.570;2022-12-18T17:37:26;13.44;73.74
77071;SHT30;65997;48.410;-4.570;2022-12-18T17:39:52;13.45;73.83
77071;SHT30;65997;48.410;-4.570;2022-12-18T17:42:33;13.48;73.57
77071;SHT30;65997;48.410;-4.570;2022-12-18T17:50:46;13.51;72.39
77071;SHT30;65997;48.410;-4.570;2022-12-18T17:53:25;13.54;71.93
77071;SHT30;65997;48.410;-4.570;2022-12-18T17:56:03;13.55;71.40
77071;SHT30;65997;48.410;-4.570;2022-12-18T17:58:57;13.55;70.95
77071;SHT30;65997;48.410;-4.570;2022-12-18T18:05:20;13.54;70.44
77071;SHT30;65997;48.410;-4.570;2022-12-18T18:08:17;13.51;70.52
77071;SHT30;65997;48.410;-4.570;2022-12-18T18:17:11;13.45;70.37
77071;SHT30;65997;48.410;-4.570;2022-12-18T18:19:48;13.52;70.22
77071;SHT30;65997;48.410;-4.570;2022-12-18T18:22:14;13.55;70.17
77071;SHT30;65997;48.410;-4.570;2022-12-18T18:24:39;13.55;70.09
77071;SHT30;65997;48.410;-4.570;2022-12-18T18:27:05;13.55;69.96
77071;SHT30;65997;48.410;-4.570;2022-12-18T18:29:30;13.57;70.18
77071;SHT30;65997;48.410;-4.570;2022-12-18T18:31:57;13.55;70.22
77071;SHT30;65997;48.410;-4.570;2022-12-18T18:34:25;13.55;70.40
77071;SHT30;65997;48.410;-4.570;2022-12-18T18:36:51;13.57;70.37
77071;SHT30;65997;48.410;-4.570;2022-12-18T18:39:17;13.57;70.26
77071;SHT30;65997;48.410;-4.570;2022-12-18T18:48:43;13.57;70.52
77071;SHT30;65997;48.410;-4.570;2022-12-18T18:51:33;13.58;70.30
77071;SHT30;65997;48.410;-4.570;2022-12-18T18:54:27;13.57;70.45
77071;SHT30;65997;48.410;-4.570;2022-12-18T18:57:16;13.59;70.50
77071;SHT30;65997;48.410;-4.570;2022-12-18T18:59:51;13.59;70.55
77071;SHT30;65997;48.410;-4.570;2022-12-18T19:05:38;13.59;70.62
77071;SHT30;65997;48.410;-4.570;2022-12-18T19:08:04;13.58;70.40
77071;SHT30;65997;48.410;-4.570;2022-12-18T19:10:30;13.62;70.68
77071;SHT30;65997;48.410;-4.570;2022-12-18T19:19:57;13.62;70.42
77071;SHT30;65997;48.410;-4.570;2022-12-18T19:22:54;13.61;70.14
77071;SHT30;65997;48.410;-4.570;2022-12-18T19:25:31;13.59;70.16
77071;SHT30;65997;48.410;-4.570;2022-12-18T19:28:08;13.61;70.13
77071;SHT30;65997;48.410;-4.570;2022-12-18T19:30:37;13.61;70.41
77071;SHT30;65997;48.410;-4.570;2022-12-18T19:33:04;13.63;70.11
77071;SHT30;65997;48.410;-4.570;2022-12-18T19:35:30;13.61;70.14
77071;SHT30;65997;48.410;-4.570;2022-12-18T19:38:20;13.59;69.92
77071;SHT30;65997;48.410;-4.570;2022-12-18T19:44:20;13.62;69.86
77071;SHT30;65997;48.410;-4.570;2022-12-18T19:47:08;13.62;70.10
77071;SHT30;65997;48.410;-4.570;2022-12-18T19:49:40;13.66;69.75
77071;SHT30;65997;48.410;-4.570;2022-12-18T19:52:21;13.68;69.77
77071;SHT30;65997;48.410;-4.570;2022-12-18T19:54:50;13.68;69.86
77071;SHT30;65997;48.410;-4.570;2022-12-18T19:57:16;13.69;69.76
77071;SHT30;65997;48.410;-4.570;2022-12-18T19:59:42;13.72;69.71
77071;SHT30;65997;48.410;-4.570;2022-12-18T20:02:12;13.75;69.98
77071;SHT30;65997;48.410;-4.570;2022-12-18T20:04:39;13.76;69.76
77071;SHT30;65997;48.410;-4.570;2022-12-18T20:07:04;13.78;69.64
77071;SHT30;65997;48.410;-4.570;2022-12-18T20:09:31;13.79;69.45
77071;SHT30;65997;48.410;-4.570;2022-12-18T20:29:54;13.78;69.93
77071;SHT30;65997;48.410;-4.570;2022-12-18T20:32:19;13.78;70.10
77071;SHT30;65997;48.410;-4.570;2022-12-18T20:34:45;13.80;70.24
77071;SHT30;65997;48.410;-4.570;2022-12-18T20:37:11;13.83;70.37
77071;SHT30;65997;48.410;-4.570;2022-12-18T20:39:36;13.82;70.64
77071;SHT30;65997;48.410;-4.570;2022-12-18T20:42:02;13.95;72.89
77071;SHT30;65997;48.410;-4.570;2022-12-18T20:48:15;14.64;69.83
77071;SHT30;65997;48.410;-4.570;2022-12-18T20:50:40;14.88;68.35
77071;SHT30;65997;48.410;-4.570;2022-12-18T20:56:52;15.29;68.33
77071;SHT30;65997;48.410;-4.570;2022-12-18T20:59:21;15.31;67.22
77071;SHT30;65997;48.410;-4.570;2022-12-18T21:01:47;15.26;67.30
77071;SHT30;65997;48.410;-4.570;2022-12-18T21:04:15;15.22;67.51
77071;SHT30;65997;48.410;-4.570;2022-12-18T21:06:40;15.12;67.87
77071;SHT30;65997;48.410;-4.570;2022-12-18T21:09:06;15.08;68.18
77071;SHT30;65997;48.410;-4.570;2022-12-18T21:11:32;15.02;68.30
77071;SHT30;65997;48.410;-4.570;2022-12-18T21:14:18;14.99;68.47
77071;SHT30;65997;48.410;-4.570;2022-12-18T21:16:46;14.96;68.61
77071;SHT30;65997;48.410;-4.570;2022-12-18T21:19:14;14.92;68.61
77071;SHT30;65997;48.410;-4.570;2022-12-18T21:21:41;14.89;68.53
77071;SHT30;65997;48.410;-4.570;2022-12-18T21:24:08;14.87;68.66
77071;SHT30;65997;48.410;-4.570;2022-12-18T21:26:35;14.84;69.02
77071;SHT30;65997;48.410;-4.570;2022-12-18T21:32:16;14.84;69.11
77071;SHT30;65997;48.410;-4.570;2022-12-18T21:34:44;14.81;69.12
77071;SHT30;65997;48.410;-4.570;2022-12-18T21:37:11;14.80;69.46